createdAt,value
2023-04-05T00:01:25.473Z,3.77
2023-04-05T00:03:57.601Z,3.72
2023-04-05T00:06:28.783Z,3.69
2023-04-05T00:08:57.468Z,3.63
2023-04-05T00:11:26.335Z,3.59
2023-04-05T00:13:54.982Z,3.56
2023-04-05T00:16:23.819Z,3.51
2023-04-05T00:18:53.965Z,3.47
2023-04-05T00:21:23.390Z,3.42
2023-04-05T00:23:53.919Z,3.36
2023-04-05T00:26:22.806Z,3.29
2023-04-05T00:28:55.823Z,3.24
2023-04-05T00:31:24.786Z,3.18
2023-04-05T00:33:54.656Z,3.14
2023-04-05T00:36:23.535Z,3.10
2023-04-05T00:38:52.030Z,3.06
2023-04-05T00:41:21.007Z,3.00
2023-04-05T00:43:49.573Z,2.94
2023-04-05T00:46:18.446Z,2.92
2023-04-05T00:48:48.412Z,2.92
2023-04-05T00:51:20.187Z,2.90
2023-04-05T00:53:52.728Z,2.84
2023-04-05T00:56:22.895Z,2.80
2023-04-05T00:58:51.808Z,2.74
2023-04-05T01:01:22.395Z,2.69
2023-04-05T01:03:59.830Z,2.65
2023-04-05T01:07:06.087Z,2.61
2023-04-05T01:09:45.564Z,2.61
2023-04-05T01:12:18.750Z,2.60
2023-04-05T01:14:49.943Z,2.57
2023-04-05T01:17:22.161Z,2.48
2023-04-05T01:19:53.308Z,2.40
2023-04-05T01:22:55.436Z,2.36
2023-04-05T01:26:00.008Z,2.26
2023-04-05T01:28:47.998Z,2.21
2023-04-05T01:31:27.282Z,2.14
2023-04-05T01:34:03.266Z,2.06
2023-04-05T01:36:38.139Z,2.03
2023-04-05T01:39:09.350Z,1.97
2023-04-05T01:41:40.921Z,1.92
2023-04-05T01:44:09.552Z,1.89
2023-04-05T01:46:39.485Z,1.83
2023-04-05T01:49:08.508Z,1.81
2023-04-05T01:51:41.878Z,1.76
2023-04-05T01:54:10.859Z,1.73
2023-04-05T01:56:39.380Z,1.69
2023-04-05T01:59:08.037Z,1.68
2023-04-05T02:01:37.945Z,1.67
2023-04-05T02:04:06.542Z,1.64
2023-04-05T02:06:35.089Z,1.61
2023-04-05T02:09:03.470Z,1.59
2023-04-05T02:11:31.989Z,1.61
2023-04-05T02:14:00.559Z,1.61
2023-04-05T02:16:30.223Z,1.61
2023-04-05T02:19:01.495Z,1.59
2023-04-05T02:21:31.874Z,1.58
2023-04-05T02:24:00.442Z,1.56
2023-04-05T02:26:28.963Z,1.51
2023-04-05T02:28:59.579Z,1.45
2023-04-05T02:31:29.638Z,1.40
2023-04-05T02:34:00.895Z,1.35
2023-04-05T02:36:30.623Z,1.31
2023-04-05T02:38:59.218Z,1.28
2023-04-05T02:41:27.749Z,1.28
2023-04-05T02:43:56.321Z,1.25
2023-04-05T02:46:25.104Z,1.21
2023-04-05T02:48:54.366Z,1.16
2023-04-05T02:51:23.072Z,1.09
2023-04-05T02:53:53.008Z,1.01
2023-04-05T02:56:22.864Z,0.95
2023-04-05T02:58:51.438Z,0.90
2023-04-05T03:01:25.582Z,0.85
2023-04-05T03:03:54.321Z,0.81
2023-04-05T03:06:22.828Z,0.81
2023-04-05T03:08:55.978Z,0.80
2023-04-05T03:11:26.899Z,0.77
2023-04-05T03:13:59.452Z,0.75
2023-04-05T03:16:57.578Z,0.70
2023-04-05T03:19:35.615Z,0.72
2023-04-05T03:22:24.492Z,0.73
2023-04-05T03:24:54.927Z,0.74
2023-04-05T03:27:23.826Z,0.77
2023-04-05T03:30:03.292Z,0.79
2023-04-05T03:32:35.023Z,0.81
2023-04-05T03:35:13.224Z,0.80
2023-04-05T03:37:46.126Z,0.80
2023-04-05T03:40:16.238Z,0.79
2023-04-05T03:42:46.052Z,0.74
2023-04-05T03:45:16.165Z,0.64
2023-04-05T03:47:46.710Z,0.57
2023-04-05T03:50:15.289Z,0.50
2023-04-05T03:52:43.934Z,0.45
2023-04-05T03:55:13.719Z,0.42
2023-04-05T03:57:44.159Z,0.41
2023-04-05T04:00:26.609Z,0.38
2023-04-05T04:03:10.918Z,0.32
2023-04-05T04:05:43.945Z,0.29
2023-04-05T04:08:13.575Z,0.30
2023-04-05T04:10:41.850Z,0.30
2023-04-05T04:13:41.162Z,0.26
2023-04-05T04:16:26.714Z,0.23
2023-04-05T04:19:24.176Z,0.17
2023-04-05T04:22:20.564Z,0.14
2023-04-05T04:25:22.204Z,0.08
2023-04-05T04:28:01.529Z,0.02
2023-04-05T04:31:04.816Z,-0.03
2023-04-05T04:33:43.615Z,-0.07
2023-04-05T04:36:15.134Z,-0.08
2023-04-05T04:39:07.040Z,-0.12
2023-04-05T04:42:10.608Z,-0.14
2023-04-05T04:45:02.671Z,-0.17
2023-04-05T04:48:00.202Z,-0.19
2023-04-05T04:50:41.536Z,-0.21
2023-04-05T04:53:10.298Z,-0.22
2023-04-05T04:55:42.271Z,-0.23
2023-04-05T04:58:12.471Z,-0.21
2023-04-05T05:00:44.117Z,-0.23
2023-04-05T05:03:14.628Z,-0.22
2023-04-05T05:05:47.384Z,-0.21
2023-04-05T05:08:21.377Z,-0.20
2023-04-05T05:10:53.600Z,-0.20
2023-04-05T05:13:22.277Z,-0.20
2023-04-05T05:15:51.752Z,-0.20
2023-04-05T05:18:21.352Z,-0.19
2023-04-05T05:20:52.967Z,-0.15
2023-04-05T05:23:21.272Z,-0.12
2023-04-05T05:25:49.868Z,-0.10
2023-04-05T05:28:18.470Z,-0.08
2023-04-05T05:30:46.993Z,-0.05
2023-04-05T05:33:16.034Z,-0.02
2023-04-05T05:35:48.997Z,-0.01
2023-04-05T05:38:17.754Z,0.02
2023-04-05T05:40:46.491Z,0.06
2023-04-05T05:43:15.498Z,0.09
2023-04-05T05:45:44.000Z,0.12
2023-04-05T05:48:12.566Z,0.14
2023-04-05T05:50:42.176Z,0.19
2023-04-05T05:53:12.264Z,0.23
2023-04-05T05:55:41.653Z,0.27
2023-04-05T05:58:10.522Z,0.32
2023-04-05T06:00:40.087Z,0.36
2023-04-05T06:03:09.886Z,0.42
2023-04-05T06:05:38.512Z,0.48
2023-04-05T06:08:07.032Z,0.53
2023-04-05T06:10:39.060Z,0.56
2023-04-05T06:13:07.749Z,0.59
2023-04-05T06:15:36.835Z,0.61
2023-04-05T06:18:05.621Z,0.65
2023-04-05T06:20:34.143Z,0.71
2023-04-05T06:23:02.881Z,0.76
2023-04-05T06:25:31.426Z,0.81
2023-04-05T06:28:01.317Z,0.85
2023-04-05T06:30:29.553Z,0.90
2023-04-05T06:32:58.109Z,0.96
2023-04-05T06:35:26.771Z,1.00
2023-04-05T06:37:54.998Z,1.06
2023-04-05T06:40:23.640Z,1.11
2023-04-05T06:42:52.129Z,1.14
2023-04-05T06:45:26.389Z,1.20
2023-04-05T06:47:54.659Z,1.28
2023-04-05T06:50:23.322Z,1.42
2023-04-05T06:52:51.914Z,1.64
2023-04-05T06:55:20.582Z,1.91
2023-04-05T06:57:49.611Z,2.23
2023-04-05T07:00:18.659Z,2.59
2023-04-05T07:02:48.607Z,2.92
2023-04-05T07:05:17.278Z,3.19
2023-04-05T07:07:48.666Z,3.46
2023-04-05T07:10:17.498Z,3.69
2023-04-05T07:12:46.804Z,3.84
2023-04-05T07:15:15.487Z,4.00
2023-04-05T07:17:44.136Z,4.15
2023-04-05T07:20:14.186Z,4.34
2023-04-05T07:22:42.757Z,4.54
2023-04-05T07:25:11.401Z,4.81
2023-04-05T07:27:40.528Z,5.07
2023-04-05T07:30:10.012Z,5.24
2023-04-05T07:32:38.726Z,5.43
2023-04-05T07:35:08.193Z,5.66
2023-04-05T07:37:38.749Z,5.78
2023-04-05T07:40:10.815Z,5.94
2023-04-05T07:42:40.422Z,6.11
2023-04-05T07:45:09.863Z,6.29
2023-04-05T07:47:38.465Z,6.52
2023-04-05T07:50:09.714Z,6.75
2023-04-05T07:52:39.341Z,6.95
2023-04-05T07:55:09.067Z,7.10
2023-04-05T07:57:37.802Z,7.21
2023-04-05T08:00:12.066Z,7.39
2023-04-05T08:02:44.297Z,7.62
2023-04-05T08:05:13.055Z,7.91
2023-04-05T08:07:42.927Z,8.13
2023-04-05T08:10:12.309Z,8.35
2023-04-05T08:12:40.886Z,8.47
2023-04-05T08:15:10.248Z,8.57
2023-04-05T08:17:38.784Z,8.76
2023-04-05T08:20:08.620Z,8.92
2023-04-05T08:22:37.095Z,9.11
2023-04-05T08:25:08.368Z,9.25
2023-04-05T08:27:36.878Z,9.45
2023-04-05T08:30:06.404Z,9.59
2023-04-05T08:32:35.195Z,9.66
2023-04-05T08:35:04.123Z,9.83
2023-04-05T08:37:36.702Z,10.05
2023-04-05T08:40:08.567Z,10.17
2023-04-05T08:42:45.961Z,10.38
2023-04-05T08:45:18.785Z,10.66
2023-04-05T08:47:49.769Z,10.99
2023-04-05T08:50:18.473Z,11.43
2023-04-05T08:52:49.960Z,11.64
2023-04-05T08:55:19.882Z,11.64
2023-04-05T08:57:54.689Z,11.68
2023-04-05T09:00:23.564Z,11.64
2023-04-05T09:02:57.853Z,11.61
2023-04-05T09:05:26.883Z,11.56
2023-04-05T09:07:58.210Z,11.52
2023-04-05T09:10:28.885Z,11.65
2023-04-05T09:12:58.598Z,11.78
2023-04-05T09:15:27.821Z,11.95
2023-04-05T09:17:57.606Z,12.14
2023-04-05T09:20:26.277Z,12.45
2023-04-05T09:22:57.099Z,12.71
2023-04-05T09:25:46.639Z,12.95
2023-04-05T09:28:15.167Z,13.00
2023-04-05T09:30:47.639Z,13.14
2023-04-05T09:33:20.984Z,13.38
2023-04-05T09:35:52.181Z,13.72
2023-04-05T09:38:41.886Z,13.73
2023-04-05T09:41:11.839Z,13.84
2023-04-05T09:43:41.205Z,13.74
2023-04-05T09:46:30.814Z,13.74
2023-04-05T09:48:59.665Z,13.63
2023-04-05T09:51:35.174Z,13.55
2023-04-05T09:54:08.002Z,13.68
2023-04-05T09:56:39.286Z,14.01
2023-04-05T09:59:10.615Z,14.22
2023-04-05T10:01:41.692Z,14.44
2023-04-05T10:04:10.442Z,14.71
2023-04-05T10:06:41.438Z,14.97
2023-04-05T10:09:11.426Z,15.13
2023-04-05T10:11:43.311Z,15.04
2023-04-05T10:14:11.831Z,15.09
2023-04-05T10:16:48.269Z,15.21
2023-04-05T10:19:24.427Z,15.51
2023-04-05T10:21:55.310Z,15.64
2023-04-05T10:24:34.929Z,15.85
2023-04-05T10:27:10.115Z,15.84
2023-04-05T10:29:48.202Z,16.00
2023-04-05T10:32:28.456Z,16.31
2023-04-05T10:35:10.958Z,16.63
2023-04-05T10:37:59.634Z,16.79
2023-04-05T10:40:33.068Z,16.62
2023-04-05T10:43:04.823Z,16.30
2023-04-05T10:45:35.767Z,16.12
2023-04-05T10:48:17.250Z,15.87
2023-04-05T10:50:48.274Z,15.70
2023-04-05T10:53:18.034Z,15.61
2023-04-05T10:55:46.847Z,15.67
2023-04-05T10:58:17.641Z,15.86
2023-04-05T11:00:48.355Z,16.02
2023-04-05T11:03:48.852Z,15.83
2023-04-05T11:06:25.918Z,15.78
2023-04-05T11:08:57.921Z,15.91
2023-04-05T11:11:27.477Z,15.98
2023-04-05T11:13:58.731Z,15.90
2023-04-05T11:16:41.070Z,15.95
2023-04-05T11:19:10.549Z,16.18
2023-04-05T11:21:38.875Z,16.35
2023-04-05T11:24:09.585Z,16.42
2023-04-05T11:26:57.816Z,16.69
2023-04-05T11:29:55.345Z,17.02
2023-04-05T11:32:24.638Z,17.26
2023-04-05T11:35:02.212Z,17.47
2023-04-05T11:37:57.205Z,17.78
2023-04-05T11:40:30.542Z,17.93
2023-04-05T11:43:05.841Z,17.84
2023-04-05T11:45:37.168Z,17.70
2023-04-05T11:48:10.914Z,17.60
2023-04-05T11:50:42.028Z,17.63
2023-04-05T11:53:12.544Z,17.45
2023-04-05T11:55:43.254Z,17.52
2023-04-05T11:58:19.294Z,17.68
2023-04-05T12:00:58.952Z,17.83
2023-04-05T12:03:30.022Z,17.92
2023-04-05T12:06:00.441Z,17.82
2023-04-05T12:08:41.838Z,17.79
2023-04-05T12:11:13.291Z,17.78
2023-04-05T12:13:42.082Z,17.87
2023-04-05T12:16:11.743Z,17.89
2023-04-05T12:18:40.336Z,17.86
2023-04-05T12:21:10.804Z,17.89
2023-04-05T12:23:39.652Z,17.96
2023-04-05T12:26:09.147Z,17.98
2023-04-05T12:28:54.009Z,18.13
2023-04-05T12:34:26.948Z,18.52
2023-04-05T12:36:56.774Z,18.60
2023-04-05T12:39:29.910Z,18.79
2023-04-05T12:41:59.884Z,18.95
2023-04-05T12:44:32.577Z,18.98
2023-04-05T12:47:07.473Z,18.91
2023-04-05T12:49:39.479Z,18.78
2023-04-05T12:52:08.787Z,18.73
2023-04-05T12:54:37.347Z,18.96
2023-04-05T12:57:08.760Z,19.29
2023-04-05T12:59:37.365Z,19.53
2023-04-05T13:02:05.760Z,19.66
2023-04-05T13:04:34.477Z,19.67
2023-04-05T13:07:04.201Z,19.66
2023-04-05T13:09:32.802Z,19.67
2023-04-05T13:12:01.635Z,19.94
2023-04-05T13:14:30.292Z,20.01
2023-04-05T13:16:58.600Z,19.75
2023-04-05T13:19:27.222Z,19.75
2023-04-05T13:21:55.773Z,19.67
2023-04-05T13:24:25.417Z,19.78
2023-04-05T13:26:53.929Z,20.06
2023-04-05T13:29:22.432Z,20.38
2023-04-05T13:31:50.961Z,20.40
2023-04-05T13:34:19.541Z,20.04
2023-04-05T13:36:48.986Z,19.71
2023-04-05T13:39:17.488Z,19.68
2023-04-05T13:41:47.066Z,19.97
2023-04-05T13:44:15.570Z,20.14
2023-04-05T13:46:44.078Z,20.17
2023-04-05T13:49:12.567Z,20.27
2023-04-05T13:51:41.900Z,20.27
2023-04-05T13:54:11.584Z,20.27
2023-04-05T13:56:40.108Z,20.31
2023-04-05T13:59:09.762Z,19.94
2023-04-05T14:01:38.412Z,19.77
2023-04-05T14:04:07.006Z,19.76
2023-04-05T14:06:35.499Z,19.79
2023-04-05T14:09:04.057Z,19.74
2023-04-05T14:11:33.172Z,19.78
2023-04-05T14:14:01.879Z,19.48
2023-04-05T14:16:31.748Z,19.33
2023-04-05T14:19:00.559Z,19.40
2023-04-05T14:21:29.138Z,19.33
2023-04-05T14:23:57.972Z,19.27
2023-04-05T14:26:27.413Z,19.39
2023-04-05T14:28:56.608Z,19.50
2023-04-05T14:31:26.259Z,19.19
2023-04-05T14:33:56.228Z,19.31
2023-04-05T14:36:24.893Z,19.58
2023-04-05T14:38:53.556Z,19.71
2023-04-05T14:41:22.068Z,19.97
2023-04-05T14:43:50.704Z,20.04
2023-04-05T14:46:19.502Z,19.93
2023-04-05T14:48:48.457Z,19.95
2023-04-05T14:51:18.374Z,20.03
2023-04-05T14:53:47.134Z,20.33
2023-04-05T14:56:15.958Z,20.49
2023-04-05T14:58:44.598Z,20.52
2023-04-05T15:01:13.887Z,20.54
2023-04-05T15:03:42.765Z,20.40
2023-04-05T15:06:11.246Z,20.43
2023-04-05T15:08:41.173Z,20.42
2023-04-05T15:11:09.947Z,20.49
2023-04-05T15:13:38.576Z,20.67
2023-04-05T15:16:07.413Z,20.66
2023-04-05T15:18:36.134Z,20.52
2023-04-05T15:21:04.806Z,20.42
2023-04-05T15:23:33.355Z,20.29
2023-04-05T15:26:03.323Z,19.99
2023-04-05T15:28:32.049Z,19.84
2023-04-05T15:31:00.954Z,19.65
2023-04-05T15:33:29.661Z,19.63
2023-04-05T15:35:58.374Z,19.74
2023-04-05T15:38:27.300Z,19.50
2023-04-05T15:40:56.938Z,19.22
2023-04-05T15:43:27.181Z,19.07
2023-04-05T15:45:55.594Z,19.12
2023-04-05T15:48:24.307Z,19.20
2023-04-05T15:50:53.133Z,19.24
2023-04-05T15:53:21.981Z,19.18
2023-04-05T15:55:50.863Z,19.27
2023-04-05T15:58:19.808Z,19.29
2023-04-05T16:00:49.861Z,19.30
2023-04-05T16:03:18.869Z,19.24
2023-04-05T16:05:47.828Z,19.10
2023-04-05T16:08:16.892Z,18.96
2023-04-05T16:10:45.914Z,18.80
2023-04-05T16:13:14.555Z,18.70
2023-04-05T16:15:42.937Z,18.48
2023-04-05T16:18:14.437Z,18.17
2023-04-05T16:20:44.132Z,17.89
2023-04-05T16:23:13.005Z,17.76
2023-04-05T16:25:41.789Z,17.63
2023-04-05T16:28:10.511Z,17.53
2023-04-05T16:30:39.198Z,17.41
2023-04-05T16:33:07.839Z,17.20
2023-04-05T16:35:37.875Z,17.02
2023-04-05T16:38:07.320Z,16.88
2023-04-05T16:40:36.223Z,16.80
2023-04-05T16:43:04.968Z,16.63
2023-04-05T16:45:36.384Z,16.38
2023-04-05T16:48:05.335Z,16.18
2023-04-05T16:50:34.570Z,16.12
2023-04-05T16:53:04.467Z,16.11
2023-04-05T16:55:32.853Z,16.07
2023-04-05T16:58:01.516Z,16.01
2023-04-05T17:00:30.682Z,15.97
2023-04-05T17:02:59.422Z,15.97
2023-04-05T17:05:28.036Z,15.90
2023-04-05T17:07:56.963Z,15.78
2023-04-05T17:10:26.969Z,15.63
2023-04-05T17:12:56.135Z,15.49
2023-04-05T17:15:24.902Z,15.39
2023-04-05T17:17:53.665Z,15.28
2023-04-05T17:20:23.135Z,15.13
2023-04-05T17:22:51.836Z,15.00
2023-04-05T17:25:20.603Z,14.88
2023-04-05T17:27:50.642Z,14.69
2023-04-05T17:30:19.420Z,14.51
2023-04-05T17:32:48.173Z,14.30
2023-04-05T17:35:17.123Z,14.02
2023-04-05T17:37:46.634Z,13.68
2023-04-05T17:40:16.276Z,13.39
2023-04-05T17:42:44.966Z,13.14
2023-04-05T17:45:14.931Z,12.86
2023-04-05T17:47:43.677Z,12.58
2023-04-05T17:50:12.638Z,12.30
2023-04-05T17:52:41.154Z,12.04
2023-04-05T17:55:10.434Z,11.77
2023-04-05T17:57:39.127Z,11.53
2023-04-05T18:00:08.991Z,11.31
2023-04-05T18:02:40.766Z,11.12
2023-04-05T18:05:11.143Z,10.95
2023-04-05T18:07:42.434Z,10.80
2023-04-05T18:10:12.027Z,10.64
2023-04-05T18:12:40.706Z,10.52
2023-04-05T18:15:10.107Z,10.39
2023-04-05T18:17:40.553Z,10.29
2023-04-05T18:20:10.299Z,10.19
2023-04-05T18:22:39.048Z,10.11
2023-04-05T18:25:11.448Z,10.01
2023-04-05T18:27:42.355Z,9.91
2023-04-05T18:30:12.128Z,9.81
2023-04-05T18:32:42.451Z,9.72
2023-04-05T18:35:11.529Z,9.62
2023-04-05T18:37:40.683Z,9.58
2023-04-05T18:40:10.690Z,9.54
2023-04-05T18:42:39.911Z,9.50
2023-04-05T18:45:09.284Z,9.44
2023-04-05T18:47:37.701Z,9.39
2023-04-05T18:50:09.908Z,9.34
2023-04-05T18:52:39.560Z,9.27
2023-04-05T18:55:09.393Z,9.23
2023-04-05T18:57:37.893Z,9.19
2023-04-05T19:00:08.092Z,9.13
2023-04-05T19:02:36.918Z,9.07
2023-04-05T19:05:07.954Z,9.00
2023-04-05T19:07:36.722Z,8.95
2023-04-05T19:10:05.923Z,8.90
2023-04-05T19:12:34.619Z,8.83
2023-04-05T19:15:03.345Z,8.73
2023-04-05T19:17:32.131Z,8.64
2023-04-05T19:20:00.883Z,8.56
2023-04-05T19:22:30.737Z,8.46
2023-04-05T19:25:00.914Z,8.35
2023-04-05T19:27:32.792Z,8.23
2023-04-05T19:30:01.603Z,8.17
2023-04-05T19:32:30.416Z,8.13
2023-04-05T19:34:59.805Z,8.10
2023-04-05T19:37:29.901Z,8.04
2023-04-05T19:39:58.650Z,7.93
2023-04-05T19:42:27.383Z,7.83
2023-04-05T19:44:58.507Z,7.76
2023-04-05T19:47:27.782Z,7.75
2023-04-05T19:49:58.461Z,7.73
2023-04-05T19:52:43.625Z,7.70
2023-04-05T19:55:28.496Z,7.65
2023-04-05T19:57:58.921Z,7.59
2023-04-05T20:00:35.795Z,7.50
2023-04-05T20:03:09.120Z,7.42
2023-04-05T20:06:04.735Z,7.28
2023-04-05T20:08:36.127Z,7.14
2023-04-05T20:11:11.923Z,7.01
2023-04-05T20:13:45.037Z,6.85
2023-04-05T20:16:14.990Z,6.72
2023-04-05T20:18:47.408Z,6.58
2023-04-05T20:21:17.646Z,6.43
2023-04-05T20:23:47.556Z,6.32
2023-04-05T20:26:17.841Z,6.23
2023-04-05T20:28:53.375Z,6.13
2023-04-05T20:33:56.188Z,5.99
2023-04-05T20:36:31.370Z,5.94
2023-04-05T20:39:02.256Z,5.90
2023-04-05T20:41:31.403Z,5.87
2023-04-05T20:44:00.496Z,5.87
2023-04-05T20:46:29.421Z,5.87
2023-04-05T20:48:59.279Z,5.84
2023-04-05T20:51:28.026Z,5.81
2023-04-05T20:53:57.187Z,5.77
2023-04-05T20:56:27.275Z,5.73
2023-04-05T20:58:55.999Z,5.73
2023-04-05T21:01:25.717Z,5.73
2023-04-05T21:03:54.295Z,5.71
2023-04-05T21:06:22.991Z,5.73
2023-04-05T21:08:51.661Z,5.73
2023-04-05T21:11:21.421Z,5.74
2023-04-05T21:13:51.798Z,5.69
2023-04-05T21:16:20.484Z,5.67
2023-04-05T21:18:49.209Z,5.68
2023-04-05T21:21:17.890Z,5.67
2023-04-05T21:23:46.651Z,5.67
2023-04-05T21:26:15.427Z,5.68
2023-04-05T21:28:44.093Z,5.67
2023-04-05T21:31:13.928Z,5.63
2023-04-05T21:33:42.608Z,5.57
2023-04-05T21:36:11.324Z,5.56
2023-04-05T21:38:39.738Z,5.54
2023-04-05T21:41:08.163Z,5.51
2023-04-05T21:43:37.945Z,5.47
2023-04-05T21:46:06.696Z,5.45
2023-04-05T21:48:36.640Z,5.46
2023-04-05T21:51:05.510Z,5.45
2023-04-05T21:53:34.164Z,5.46
2023-04-05T21:56:02.787Z,5.46
2023-04-05T21:58:31.465Z,5.46
2023-04-05T22:01:00.281Z,5.47
2023-04-05T22:03:28.960Z,5.49
2023-04-05T22:05:59.025Z,5.53
2023-04-05T22:08:28.851Z,5.57
2023-04-05T22:10:57.675Z,5.60
2023-04-05T22:13:26.517Z,5.61
2023-04-05T22:15:55.163Z,5.62
2023-04-05T22:18:25.467Z,5.62
2023-04-05T22:20:54.153Z,5.60
2023-04-05T22:23:24.235Z,5.56
2023-04-05T22:25:53.288Z,5.49
2023-04-05T22:28:22.913Z,5.42
2023-04-05T22:30:51.682Z,5.37
2023-04-05T22:33:20.313Z,5.31
2023-04-05T22:35:49.031Z,5.28
2023-04-05T22:38:17.741Z,5.22
2023-04-05T22:40:47.789Z,5.15
2023-04-05T22:43:16.465Z,5.07
2023-04-05T22:45:45.149Z,5.01
2023-04-05T22:48:13.928Z,4.94
2023-04-05T22:50:42.656Z,4.87
2023-04-05T22:53:11.326Z,4.78
2023-04-05T22:55:41.023Z,4.70
2023-04-05T22:58:11.097Z,4.64
2023-04-05T23:00:39.863Z,4.61
2023-04-05T23:03:08.608Z,4.60
2023-04-05T23:05:38.453Z,4.56
2023-04-05T23:08:07.329Z,4.55
2023-04-05T23:10:36.038Z,4.54
2023-04-05T23:13:04.688Z,4.52
2023-04-05T23:15:34.738Z,4.49
2023-04-05T23:18:03.476Z,4.47
2023-04-05T23:20:32.211Z,4.46
2023-04-05T23:23:00.974Z,4.44
2023-04-05T23:25:29.639Z,4.41
2023-04-05T23:27:58.297Z,4.37
2023-04-05T23:30:26.973Z,4.30
2023-04-05T23:32:56.781Z,4.26
2023-04-05T23:35:25.509Z,4.22
2023-04-05T23:37:54.165Z,4.19
2023-04-05T23:40:23.033Z,4.18
2023-04-05T23:42:51.745Z,4.18
2023-04-05T23:45:20.450Z,4.19
2023-04-05T23:47:49.255Z,4.22
2023-04-05T23:50:19.425Z,4.25
2023-04-05T23:52:48.093Z,4.27
2023-04-05T23:55:16.926Z,4.25
2023-04-05T23:57:45.665Z,4.24
